sensor_id;sensor_type;location;lat;lon;timestamp;P1;durP1;ratioP1;P2;durP2;ratioP2
67191;SDS011;54120;53.504;49.426;2024-02-21T00:02:10;18.15;;;10.50;;
67191;SDS011;54120;53.504;49.426;2024-02-21T00:04:36;14.15;;;8.98;;
67191;SDS011;54120;53.504;49.426;2024-02-21T00:07:04;15.02;;;9.30;;
67191;SDS011;54120;53.504;49.426;2024-02-21T00:09:30;19.90;;;10.85;;
67191;SDS011;54120;53.504;49.426;2024-02-21T00:11:57;19.52;;;12.13;;
67191;SDS011;54120;53.504;49.426;2024-02-21T00:14:24;16.15;;;10.60;;
67191;SDS011;54120;53.504;49.426;2024-02-21T00:16:50;16.98;;;10.73;;
67191;SDS011;54120;53.504;49.426;2024-02-21T00:19:16;18.00;;;9.90;;
67191;SDS011;54120;53.504;49.426;2024-02-21T00:21:43;22.55;;;9.82;;
67191;SDS011;54120;53.504;49.426;2024-02-21T00:24:09;19.63;;;9.38;;
67191;SDS011;54120;53.504;49.426;2024-02-21T00:26:35;17.17;;;9.52;;
67191;SDS011;54120;53.504;49.426;2024-02-21T00:29:02;20.30;;;9.73;;
67191;SDS011;54120;53.504;49.426;2024-02-21T00:31:28;17.15;;;9.27;;
67191;SDS011;54120;53.504;49.426;2024-02-21T00:33:54;16.20;;;9.10;;
67191;SDS011;54120;53.504;49.426;2024-02-21T00:36:20;17.95;;;9.68;;
67191;SDS011;54120;53.504;49.426;2024-02-21T00:38:47;20.60;;;9.77;;
67191;SDS011;54120;53.504;49.426;2024-02-21T00:41:13;15.95;;;10.30;;
67191;SDS011;54120;53.504;49.426;2024-02-21T00:43:41;18.45;;;9.82;;
67191;SDS011;54120;53.504;49.426;2024-02-21T00:46:08;20.42;;;10.00;;
67191;SDS011;54120;53.504;49.426;2024-02-21T00:48:34;20.00;;;10.63;;
67191;SDS011;54120;53.504;49.426;2024-02-21T00:51:01;17.95;;;9.70;;
67191;SDS011;54120;53.504;49.426;2024-02-21T00:53:27;20.20;;;10.27;;
67191;SDS011;54120;53.504;49.426;2024-02-21T00:55:53;15.98;;;10.10;;
67191;SDS011;54120;53.504;49.426;2024-02-21T00:58:20;18.90;;;10.27;;
67191;SDS011;54120;53.504;49.426;2024-02-21T01:00:46;21.20;;;9.57;;
67191;SDS011;54120;53.504;49.426;2024-02-21T01:03:12;17.05;;;10.10;;
67191;SDS011;54120;53.504;49.426;2024-02-21T01:05:38;15.85;;;10.13;;
67191;SDS011;54120;53.504;49.426;2024-02-21T01:08:05;15.93;;;8.95;;
67191;SDS011;54120;53.504;49.426;2024-02-21T01:10:31;24.77;;;11.65;;
67191;SDS011;54120;53.504;49.426;2024-02-21T01:12:58;14.70;;;9.38;;
67191;SDS011;54120;53.504;49.426;2024-02-21T01:15:24;21.00;;;9.90;;
67191;SDS011;54120;53.504;49.426;2024-02-21T01:17:50;13.25;;;8.82;;
67191;SDS011;54120;53.504;49.426;2024-02-21T01:20:20;15.93;;;9.35;;
67191;SDS011;54120;53.504;49.426;2024-02-21T01:22:47;19.30;;;9.27;;
67191;SDS011;54120;53.504;49.426;2024-02-21T01:25:13;16.13;;;9.18;;
67191;SDS011;54120;53.504;49.426;2024-02-21T01:27:39;19.35;;;9.57;;
67191;SDS011;54120;53.504;49.426;2024-02-21T01:30:06;12.98;;;8.05;;
67191;SDS011;54120;53.504;49.426;2024-02-21T01:32:33;17.17;;;8.93;;
67191;SDS011;54120;53.504;49.426;2024-02-21T01:34:59;20.75;;;9.23;;
67191;SDS011;54120;53.504;49.426;2024-02-21T01:37:25;14.20;;;9.45;;
67191;SDS011;54120;53.504;49.426;2024-02-21T01:39:52;15.68;;;9.57;;
67191;SDS011;54120;53.504;49.426;2024-02-21T01:42:19;16.38;;;9.65;;
67191;SDS011;54120;53.504;49.426;2024-02-21T01:44:45;17.63;;;9.80;;
67191;SDS011;54120;53.504;49.426;2024-02-21T01:47:11;15.32;;;9.80;;
67191;SDS011;54120;53.504;49.426;2024-02-21T01:49:42;19.95;;;10.38;;
67191;SDS011;54120;53.504;49.426;2024-02-21T01:52:09;14.82;;;9.27;;
67191;SDS011;54120;53.504;49.426;2024-02-21T01:54:40;23.02;;;9.80;;
67191;SDS011;54120;53.504;49.426;2024-02-21T01:57:06;20.38;;;10.13;;
67191;SDS011;54120;53.504;49.426;2024-02-21T01:59:33;20.17;;;10.00;;
67191;SDS011;54120;53.504;49.426;2024-02-21T02:02:01;15.45;;;9.65;;
67191;SDS011;54120;53.504;49.426;2024-02-21T02:04:28;18.67;;;9.95;;
67191;SDS011;54120;53.504;49.426;2024-02-21T02:06:55;21.50;;;9.32;;
67191;SDS011;54120;53.504;49.426;2024-02-21T02:09:21;14.80;;;9.63;;
67191;SDS011;54120;53.504;49.426;2024-02-21T02:11:48;19.95;;;10.30;;
67191;SDS011;54120;53.504;49.426;2024-02-21T02:14:14;15.85;;;9.43;;
67191;SDS011;54120;53.504;49.426;2024-02-21T02:16:40;18.45;;;10.95;;
67191;SDS011;54120;53.504;49.426;2024-02-21T02:19:07;22.27;;;10.55;;
67191;SDS011;54120;53.504;49.426;2024-02-21T02:21:37;16.33;;;9.45;;
67191;SDS011;54120;53.504;49.426;2024-02-21T02:24:07;15.02;;;9.80;;
67191;SDS011;54120;53.504;49.426;2024-02-21T02:26:36;16.50;;;9.32;;
67191;SDS011;54120;53.504;49.426;2024-02-21T02:29:02;15.88;;;9.68;;
67191;SDS011;54120;53.504;49.426;2024-02-21T02:31:28;13.85;;;9.52;;
67191;SDS011;54120;53.504;49.426;2024-02-21T02:33:55;14.45;;;9.35;;
67191;SDS011;54120;53.504;49.426;2024-02-21T02:36:21;13.15;;;8.27;;
67191;SDS011;54120;53.504;49.426;2024-02-21T02:38:47;17.90;;;9.25;;
67191;SDS011;54120;53.504;49.426;2024-02-21T02:41:13;17.98;;;9.43;;
67191;SDS011;54120;53.504;49.426;2024-02-21T02:43:40;18.88;;;9.73;;
67191;SDS011;54120;53.504;49.426;2024-02-21T02:46:06;15.80;;;12.10;;
67191;SDS011;54120;53.504;49.426;2024-02-21T02:48:33;18.55;;;9.63;;
67191;SDS011;54120;53.504;49.426;2024-02-21T02:50:59;17.63;;;9.52;;
67191;SDS011;54120;53.504;49.426;2024-02-21T02:53:25;17.15;;;9.80;;
67191;SDS011;54120;53.504;49.426;2024-02-21T02:55:52;24.38;;;10.32;;
67191;SDS011;54120;53.504;49.426;2024-02-21T02:58:18;21.40;;;10.50;;
67191;SDS011;54120;53.504;49.426;2024-02-21T03:00:44;15.50;;;9.63;;
67191;SDS011;54120;53.504;49.426;2024-02-21T03:03:11;17.55;;;9.10;;
67191;SDS011;54120;53.504;49.426;2024-02-21T03:05:37;15.95;;;9.65;;
67191;SDS011;54120;53.504;49.426;2024-02-21T03:08:03;18.92;;;9.52;;
67191;SDS011;54120;53.504;49.426;2024-02-21T03:10:33;19.15;;;10.82;;
67191;SDS011;54120;53.504;49.426;2024-02-21T03:12:59;17.10;;;8.50;;
67191;SDS011;54120;53.504;49.426;2024-02-21T03:15:25;15.75;;;9.20;;
67191;SDS011;54120;53.504;49.426;2024-02-21T03:17:52;21.65;;;9.70;;
67191;SDS011;54120;53.504;49.426;2024-02-21T03:20:18;13.52;;;8.95;;
67191;SDS011;54120;53.504;49.426;2024-02-21T03:22:45;18.23;;;8.45;;
67191;SDS011;54120;53.504;49.426;2024-02-21T03:25:12;21.50;;;9.55;;
67191;SDS011;54120;53.504;49.426;2024-02-21T03:27:39;13.10;;;8.77;;
67191;SDS011;54120;53.504;49.426;2024-02-21T03:30:06;13.77;;;9.10;;
67191;SDS011;54120;53.504;49.426;2024-02-21T03:32:32;17.55;;;9.02;;
67191;SDS011;54120;53.504;49.426;2024-02-21T03:34:59;13.52;;;8.98;;
67191;SDS011;54120;53.504;49.426;2024-02-21T03:37:25;20.90;;;9.35;;
67191;SDS011;54120;53.504;49.426;2024-02-21T03:39:51;14.88;;;8.82;;
67191;SDS011;54120;53.504;49.426;2024-02-21T03:42:18;18.98;;;9.25;;
67191;SDS011;54120;53.504;49.426;2024-02-21T03:44:44;17.08;;;9.18;;
67191;SDS011;54120;53.504;49.426;2024-02-21T03:47:10;22.52;;;10.63;;
67191;SDS011;54120;53.504;49.426;2024-02-21T03:49:37;15.38;;;10.55;;
67191;SDS011;54120;53.504;49.426;2024-02-21T03:52:04;15.55;;;10.68;;
67191;SDS011;54120;53.504;49.426;2024-02-21T03:54:30;19.90;;;10.93;;
67191;SDS011;54120;53.504;49.426;2024-02-21T03:56:56;17.67;;;11.10;;
67191;SDS011;54120;53.504;49.426;2024-02-21T03:59:23;18.48;;;11.23;;
67191;SDS011;54120;53.504;49.426;2024-02-21T04:01:52;14.65;;;11.00;;
67191;SDS011;54120;53.504;49.426;2024-02-21T04:04:20;15.93;;;10.50;;
67191;SDS011;54120;53.504;49.426;2024-02-21T04:06:50;17.73;;;9.75;;
67191;SDS011;54120;53.504;49.426;2024-02-21T04:09:17;20.58;;;8.88;;
67191;SDS011;54120;53.504;49.426;2024-02-21T04:11:44;17.80;;;8.85;;
67191;SDS011;54120;53.504;49.426;2024-02-21T04:14:10;18.35;;;9.75;;
67191;SDS011;54120;53.504;49.426;2024-02-21T04:16:39;16.30;;;10.77;;
67191;SDS011;54120;53.504;49.426;2024-02-21T04:19:06;19.92;;;9.65;;
67191;SDS011;54120;53.504;49.426;2024-02-21T04:21:32;14.52;;;8.00;;
67191;SDS011;54120;53.504;49.426;2024-02-21T04:23:59;15.05;;;7.65;;
67191;SDS011;54120;53.504;49.426;2024-02-21T04:26:25;14.93;;;7.95;;
67191;SDS011;54120;53.504;49.426;2024-02-21T04:28:53;55.97;;;51.83;;
67191;SDS011;54120;53.504;49.426;2024-02-21T04:31:19;18.63;;;13.98;;
67191;SDS011;54120;53.504;49.426;2024-02-21T04:33:45;17.98;;;13.02;;
67191;SDS011;54120;53.504;49.426;2024-02-21T04:36:12;15.48;;;10.02;;
67191;SDS011;54120;53.504;49.426;2024-02-21T04:38:38;15.95;;;8.70;;
67191;SDS011;54120;53.504;49.426;2024-02-21T04:41:04;15.70;;;14.02;;
67191;SDS011;54120;53.504;49.426;2024-02-21T04:43:31;13.48;;;7.93;;
67191;SDS011;54120;53.504;49.426;2024-02-21T04:45:57;17.63;;;13.25;;
67191;SDS011;54120;53.504;49.426;2024-02-21T04:48:23;13.13;;;7.45;;
67191;SDS011;54120;53.504;49.426;2024-02-21T04:50:50;19.40;;;13.32;;
67191;SDS011;54120;53.504;49.426;2024-02-21T04:53:16;24.60;;;18.35;;
67191;SDS011;54120;53.504;49.426;2024-02-21T04:55:43;25.45;;;23.08;;
67191;SDS011;54120;53.504;49.426;2024-02-21T04:58:09;12.50;;;8.85;;
67191;SDS011;54120;53.504;49.426;2024-02-21T05:00:36;13.50;;;8.55;;
67191;SDS011;54120;53.504;49.426;2024-02-21T05:03:02;10.40;;;6.30;;
67191;SDS011;54120;53.504;49.426;2024-02-21T05:05:28;14.40;;;6.72;;
67191;SDS011;54120;53.504;49.426;2024-02-21T05:07:55;12.70;;;7.05;;
67191;SDS011;54120;53.504;49.426;2024-02-21T05:10:21;14.10;;;7.10;;
67191;SDS011;54120;53.504;49.426;2024-02-21T05:12:47;11.90;;;6.60;;
67191;SDS011;54120;53.504;49.426;2024-02-21T05:15:14;11.50;;;6.53;;
67191;SDS011;54120;53.504;49.426;2024-02-21T05:17:40;11.82;;;6.60;;
67191;SDS011;54120;53.504;49.426;2024-02-21T05:20:06;12.23;;;7.00;;
67191;SDS011;54120;53.504;49.426;2024-02-21T05:22:33;16.60;;;6.70;;
67191;SDS011;54120;53.504;49.426;2024-02-21T05:24:59;11.32;;;5.95;;
67191;SDS011;54120;53.504;49.426;2024-02-21T05:27:26;8.93;;;6.25;;
67191;SDS011;54120;53.504;49.426;2024-02-21T05:29:53;9.25;;;5.95;;
67191;SDS011;54120;53.504;49.426;2024-02-21T05:32:19;10.38;;;5.90;;
67191;SDS011;54120;53.504;49.426;2024-02-21T05:34:48;12.27;;;6.05;;
67191;SDS011;54120;53.504;49.426;2024-02-21T05:37:15;10.50;;;5.90;;
67191;SDS011;54120;53.504;49.426;2024-02-21T05:39:42;7.38;;;5.25;;
67191;SDS011;54120;53.504;49.426;2024-02-21T05:42:08;11.40;;;6.45;;
67191;SDS011;54120;53.504;49.426;2024-02-21T05:44:34;6.10;;;5.20;;
67191;SDS011;54120;53.504;49.426;2024-02-21T05:47:03;10.10;;;6.63;;
67191;SDS011;54120;53.504;49.426;2024-02-21T05:49:30;9.73;;;6.40;;
67191;SDS011;54120;53.504;49.426;2024-02-21T05:51:56;9.45;;;5.10;;
67191;SDS011;54120;53.504;49.426;2024-02-21T05:54:22;7.68;;;4.85;;
67191;SDS011;54120;53.504;49.426;2024-02-21T05:56:49;8.25;;;4.75;;
67191;SDS011;54120;53.504;49.426;2024-02-21T05:59:15;7.00;;;4.45;;
67191;SDS011;54120;53.504;49.426;2024-02-21T06:01:42;8.27;;;4.90;;
67191;SDS011;54120;53.504;49.426;2024-02-21T06:04:08;7.53;;;4.78;;
67191;SDS011;54120;53.504;49.426;2024-02-21T06:06:34;9.38;;;5.05;;
67191;SDS011;54120;53.504;49.426;2024-02-21T06:09:01;6.75;;;4.65;;
67191;SDS011;54120;53.504;49.426;2024-02-21T06:11:28;9.40;;;4.32;;
67191;SDS011;54120;53.504;49.426;2024-02-21T06:13:55;6.60;;;4.05;;
67191;SDS011;54120;53.504;49.426;2024-02-21T06:16:21;6.05;;;3.97;;
67191;SDS011;54120;53.504;49.426;2024-02-21T06:18:47;7.75;;;3.90;;
67191;SDS011;54120;53.504;49.426;2024-02-21T06:21:13;6.70;;;3.75;;
67191;SDS011;54120;53.504;49.426;2024-02-21T06:23:42;5.10;;;3.50;;
67191;SDS011;54120;53.504;49.426;2024-02-21T06:26:08;5.68;;;3.78;;
67191;SDS011;54120;53.504;49.426;2024-02-21T06:28:35;4.28;;;3.58;;
67191;SDS011;54120;53.504;49.426;2024-02-21T06:31:01;4.35;;;3.75;;
67191;SDS011;54120;53.504;49.426;2024-02-21T06:33:28;5.60;;;3.55;;
67191;SDS011;54120;53.504;49.426;2024-02-21T06:35:54;5.82;;;3.75;;
67191;SDS011;54120;53.504;49.426;2024-02-21T06:38:20;7.35;;;5.60;;
67191;SDS011;54120;53.504;49.426;2024-02-21T06:40:47;10.98;;;8.40;;
67191;SDS011;54120;53.504;49.426;2024-02-21T06:43:19;6.60;;;4.13;;
67191;SDS011;54120;53.504;49.426;2024-02-21T06:45:46;6.15;;;4.05;;
67191;SDS011;54120;53.504;49.426;2024-02-21T06:48:17;6.53;;;3.70;;
67191;SDS011;54120;53.504;49.426;2024-02-21T06:50:44;6.13;;;4.05;;
67191;SDS011;54120;53.504;49.426;2024-02-21T06:53:10;5.95;;;4.13;;
67191;SDS011;54120;53.504;49.426;2024-02-21T06:55:36;7.00;;;4.18;;
67191;SDS011;54120;53.504;49.426;2024-02-21T06:58:03;5.38;;;3.80;;
67191;SDS011;54120;53.504;49.426;2024-02-21T07:00:29;6.10;;;4.25;;
67191;SDS011;54120;53.504;49.426;2024-02-21T07:02:55;7.03;;;4.47;;
67191;SDS011;54120;53.504;49.426;2024-02-21T07:05:22;6.20;;;4.50;;
67191;SDS011;54120;53.504;49.426;2024-02-21T07:07:48;7.35;;;4.13;;
67191;SDS011;54120;53.504;49.426;2024-02-21T07:10:14;5.68;;;4.25;;
67191;SDS011;54120;53.504;49.426;2024-02-21T07:12:41;6.25;;;4.60;;
67191;SDS011;54120;53.504;49.426;2024-02-21T07:15:10;6.70;;;4.45;;
67191;SDS011;54120;53.504;49.426;2024-02-21T07:17:36;7.65;;;4.78;;
67191;SDS011;54120;53.504;49.426;2024-02-21T07:20:02;6.72;;;4.53;;
67191;SDS011;54120;53.504;49.426;2024-02-21T07:22:29;6.60;;;4.38;;
67191;SDS011;54120;53.504;49.426;2024-02-21T07:24:55;7.18;;;4.50;;
67191;SDS011;54120;53.504;49.426;2024-02-21T07:27:21;5.35;;;4.43;;
67191;SDS011;54120;53.504;49.426;2024-02-21T07:29:47;5.88;;;4.70;;
67191;SDS011;54120;53.504;49.426;2024-02-21T07:32:15;5.18;;;4.22;;
67191;SDS011;54120;53.504;49.426;2024-02-21T07:34:41;6.63;;;4.45;;
67191;SDS011;54120;53.504;49.426;2024-02-21T07:37:08;8.32;;;4.22;;
67191;SDS011;54120;53.504;49.426;2024-02-21T07:39:38;5.47;;;3.95;;
67191;SDS011;54120;53.504;49.426;2024-02-21T07:42:04;5.00;;;3.72;;
67191;SDS011;54120;53.504;49.426;2024-02-21T07:44:31;6.63;;;4.15;;
67191;SDS011;54120;53.504;49.426;2024-02-21T07:46:58;6.30;;;4.10;;
67191;SDS011;54120;53.504;49.426;2024-02-21T07:49:24;6.88;;;4.03;;
67191;SDS011;54120;53.504;49.426;2024-02-21T07:51:51;8.95;;;4.15;;
67191;SDS011;54120;53.504;49.426;2024-02-21T07:54:18;7.38;;;4.20;;
67191;SDS011;54120;53.504;49.426;2024-02-21T07:56:45;5.93;;;4.70;;
67191;SDS011;54120;53.504;49.426;2024-02-21T07:59:11;10.75;;;4.32;;
67191;SDS011;54120;53.504;49.426;2024-02-21T08:01:39;9.13;;;4.32;;
67191;SDS011;54120;53.504;49.426;2024-02-21T08:04:06;6.70;;;4.70;;
67191;SDS011;54120;53.504;49.426;2024-02-21T08:06:32;10.48;;;4.80;;
67191;SDS011;54120;53.504;49.426;2024-02-21T08:08:58;11.13;;;5.35;;
67191;SDS011;54120;53.504;49.426;2024-02-21T08:11:26;7.25;;;5.30;;
67191;SDS011;54120;53.504;49.426;2024-02-21T08:13:52;13.25;;;6.10;;
67191;SDS011;54120;53.504;49.426;2024-02-21T08:16:19;10.52;;;6.55;;
67191;SDS011;54120;53.504;49.426;2024-02-21T08:18:45;7.68;;;5.50;;
67191;SDS011;54120;53.504;49.426;2024-02-21T08:21:11;10.73;;;6.00;;
67191;SDS011;54120;53.504;49.426;2024-02-21T08:23:38;12.25;;;5.82;;
67191;SDS011;54120;53.504;49.426;2024-02-21T08:26:04;10.35;;;5.82;;
67191;SDS011;54120;53.504;49.426;2024-02-21T08:28:31;15.70;;;8.98;;
67191;SDS011;54120;53.504;49.426;2024-02-21T08:30:58;9.38;;;5.32;;
67191;SDS011;54120;53.504;49.426;2024-02-21T08:33:24;7.57;;;5.20;;
67191;SDS011;54120;53.504;49.426;2024-02-21T08:35:53;7.95;;;5.07;;
67191;SDS011;54120;53.504;49.426;2024-02-21T08:38:20;6.63;;;4.30;;
67191;SDS011;54120;53.504;49.426;2024-02-21T08:40:46;8.43;;;5.00;;
67191;SDS011;54120;53.504;49.426;2024-02-21T08:43:12;7.50;;;5.22;;
67191;SDS011;54120;53.504;49.426;2024-02-21T08:45:39;8.35;;;4.97;;
67191;SDS011;54120;53.504;49.426;2024-02-21T08:48:05;6.47;;;4.15;;
67191;SDS011;54120;53.504;49.426;2024-02-21T08:50:33;6.82;;;3.80;;
67191;SDS011;54120;53.504;49.426;2024-02-21T08:53:00;7.57;;;4.25;;
67191;SDS011;54120;53.504;49.426;2024-02-21T08:55:27;6.57;;;3.63;;
67191;SDS011;54120;53.504;49.426;2024-02-21T08:57:53;5.55;;;3.60;;
67191;SDS011;54120;53.504;49.426;2024-02-21T09:00:19;5.65;;;3.90;;
67191;SDS011;54120;53.504;49.426;2024-02-21T09:02:49;5.90;;;4.15;;
67191;SDS011;54120;53.504;49.426;2024-02-21T09:05:16;7.60;;;4.32;;
67191;SDS011;54120;53.504;49.426;2024-02-21T09:07:42;7.15;;;4.45;;
67191;SDS011;54120;53.504;49.426;2024-02-21T09:10:08;8.82;;;4.78;;
67191;SDS011;54120;53.504;49.426;2024-02-21T09:12:35;7.45;;;5.07;;
67191;SDS011;54120;53.504;49.426;2024-02-21T09:15:01;9.88;;;5.53;;
67191;SDS011;54120;53.504;49.426;2024-02-21T09:17:28;9.25;;;4.85;;
67191;SDS011;54120;53.504;49.426;2024-02-21T09:19:55;9.65;;;4.82;;
67191;SDS011;54120;53.504;49.426;2024-02-21T09:22:24;7.25;;;5.00;;
67191;SDS011;54120;53.504;49.426;2024-02-21T09:24:51;6.57;;;5.03;;
67191;SDS011;54120;53.504;49.426;2024-02-21T09:27:17;6.38;;;4.40;;
67191;SDS011;54120;53.504;49.426;2024-02-21T09:29:44;7.72;;;5.18;;
67191;SDS011;54120;53.504;49.426;2024-02-21T09:32:10;9.82;;;5.53;;
67191;SDS011;54120;53.504;49.426;2024-02-21T09:34:39;7.65;;;4.95;;
67191;SDS011;54120;53.504;49.426;2024-02-21T09:37:06;7.13;;;4.90;;
67191;SDS011;54120;53.504;49.426;2024-02-21T09:39:33;7.68;;;5.25;;
67191;SDS011;54120;53.504;49.426;2024-02-21T09:42:05;11.70;;;6.47;;
67191;SDS011;54120;53.504;49.426;2024-02-21T09:44:38;9.68;;;5.43;;
67191;SDS011;54120;53.504;49.426;2024-02-21T09:47:07;9.40;;;5.65;;
67191;SDS011;54120;53.504;49.426;2024-02-21T09:49:41;8.13;;;4.95;;
67191;SDS011;54120;53.504;49.426;2024-02-21T09:52:09;8.55;;;5.85;;
67191;SDS011;54120;53.504;49.426;2024-02-21T09:54:42;9.23;;;5.75;;
67191;SDS011;54120;53.504;49.426;2024-02-21T09:57:10;8.57;;;5.05;;
67191;SDS011;54120;53.504;49.426;2024-02-21T09:59:37;9.50;;;5.78;;
67191;SDS011;54120;53.504;49.426;2024-02-21T10:02:07;8.02;;;4.82;;
67191;SDS011;54120;53.504;49.426;2024-02-21T10:04:33;13.23;;;5.78;;
67191;SDS011;54120;53.504;49.426;2024-02-21T10:07:00;9.15;;;4.68;;
67191;SDS011;54120;53.504;49.426;2024-02-21T10:09:27;6.65;;;5.15;;
67191;SDS011;54120;53.504;49.426;2024-02-21T10:11:54;7.13;;;4.85;;
67191;SDS011;54120;53.504;49.426;2024-02-21T10:14:22;9.02;;;4.95;;
67191;SDS011;54120;53.504;49.426;2024-02-21T10:16:49;10.82;;;5.40;;
67191;SDS011;54120;53.504;49.426;2024-02-21T10:19:23;9.25;;;5.53;;
67191;SDS011;54120;53.504;49.426;2024-02-21T10:22:03;8.43;;;5.00;;
67191;SDS011;54120;53.504;49.426;2024-02-21T10:24:36;10.40;;;5.28;;
67191;SDS011;54120;53.504;49.426;2024-02-21T10:27:12;10.85;;;4.97;;
67191;SDS011;54120;53.504;49.426;2024-02-21T10:29:39;9.80;;;5.10;;
67191;SDS011;54120;53.504;49.426;2024-02-21T10:32:06;7.78;;;4.70;;
67191;SDS011;54120;53.504;49.426;2024-02-21T10:34:37;6.88;;;5.00;;
67191;SDS011;54120;53.504;49.426;2024-02-21T10:37:08;10.32;;;5.32;;
67191;SDS011;54120;53.504;49.426;2024-02-21T10:39:37;11.13;;;4.60;;
67191;SDS011;54120;53.504;49.426;2024-02-21T10:42:06;9.02;;;5.20;;
67191;SDS011;54120;53.504;49.426;2024-02-21T10:44:38;10.77;;;5.05;;
67191;SDS011;54120;53.504;49.426;2024-02-21T10:47:10;9.13;;;5.22;;
67191;SDS011;54120;53.504;49.426;2024-02-21T10:49:40;14.38;;;5.60;;
67191;SDS011;54120;53.504;49.426;2024-02-21T10:52:14;9.50;;;5.63;;
67191;SDS011;54120;53.504;49.426;2024-02-21T10:54:50;11.00;;;5.82;;
67191;SDS011;54120;53.504;49.426;2024-02-21T10:57:33;9.95;;;5.43;;
67191;SDS011;54120;53.504;49.426;2024-02-21T11:00:01;11.50;;;5.30;;
67191;SDS011;54120;53.504;49.426;2024-02-21T11:02:29;11.52;;;4.80;;
67191;SDS011;54120;53.504;49.426;2024-02-21T11:04:57;9.07;;;5.10;;
67191;SDS011;54120;53.504;49.426;2024-02-21T11:07:25;7.15;;;4.75;;
67191;SDS011;54120;53.504;49.426;2024-02-21T11:09:52;9.40;;;5.00;;
67191;SDS011;54120;53.504;49.426;2024-02-21T11:12:22;7.90;;;4.22;;
67191;SDS011;54120;53.504;49.426;2024-02-21T11:14:49;6.35;;;4.10;;
67191;SDS011;54120;53.504;49.426;2024-02-21T11:17:19;6.65;;;4.43;;
67191;SDS011;54120;53.504;49.426;2024-02-21T11:19:52;7.80;;;4.20;;
67191;SDS011;54120;53.504;49.426;2024-02-21T11:22:20;6.60;;;4.38;;
67191;SDS011;54120;53.504;49.426;2024-02-21T11:24:48;9.18;;;4.22;;
67191;SDS011;54120;53.504;49.426;2024-02-21T11:27:21;6.15;;;4.10;;
67191;SDS011;54120;53.504;49.426;2024-02-21T11:29:55;24.05;;;16.50;;
67191;SDS011;54120;53.504;49.426;2024-02-21T11:32:25;8.38;;;4.80;;
67191;SDS011;54120;53.504;49.426;2024-02-21T11:34:56;10.52;;;4.30;;
67191;SDS011;54120;53.504;49.426;2024-02-21T11:37:31;9.48;;;4.15;;
67191;SDS011;54120;53.504;49.426;2024-02-21T11:39:59;7.35;;;3.92;;
67191;SDS011;54120;53.504;49.426;2024-02-21T11:42:26;7.25;;;4.15;;
67191;SDS011;54120;53.504;49.426;2024-02-21T11:44:54;7.53;;;4.30;;
67191;SDS011;54120;53.504;49.426;2024-02-21T11:47:22;7.55;;;4.20;;
67191;SDS011;54120;53.504;49.426;2024-02-21T11:49:49;8.43;;;4.55;;
67191;SDS011;54120;53.504;49.426;2024-02-21T11:52:23;7.18;;;4.35;;
67191;SDS011;54120;53.504;49.426;2024-02-21T11:54:54;8.70;;;4.67;;
67191;SDS011;54120;53.504;49.426;2024-02-21T11:57:23;10.40;;;5.00;;
67191;SDS011;54120;53.504;49.426;2024-02-21T11:59:50;8.63;;;4.78;;
67191;SDS011;54120;53.504;49.426;2024-02-21T12:02:20;6.90;;;4.75;;
67191;SDS011;54120;53.504;49.426;2024-02-21T12:04:47;7.97;;;5.25;;
67191;SDS011;54120;53.504;49.426;2024-02-21T12:07:14;11.57;;;5.03;;
67191;SDS011;54120;53.504;49.426;2024-02-21T12:09:41;10.00;;;5.07;;
67191;SDS011;54120;53.504;49.426;2024-02-21T12:12:08;7.22;;;4.47;;
67191;SDS011;54120;53.504;49.426;2024-02-21T12:14:34;9.40;;;5.72;;
67191;SDS011;54120;53.504;49.426;2024-02-21T12:17:02;12.27;;;5.85;;
67191;SDS011;54120;53.504;49.426;2024-02-21T12:19:30;9.75;;;5.80;;
67191;SDS011;54120;53.504;49.426;2024-02-21T12:22:01;10.57;;;5.20;;
67191;SDS011;54120;53.504;49.426;2024-02-21T12:24:31;10.15;;;5.65;;
67191;SDS011;54120;53.504;49.426;2024-02-21T12:26:57;7.15;;;5.00;;
67191;SDS011;54120;53.504;49.426;2024-02-21T12:29:24;8.85;;;5.18;;
67191;SDS011;54120;53.504;49.426;2024-02-21T12:31:51;11.38;;;5.07;;
67191;SDS011;54120;53.504;49.426;2024-02-21T12:34:17;15.15;;;7.45;;
67191;SDS011;54120;53.504;49.426;2024-02-21T12:36:44;6.60;;;4.80;;
67191;SDS011;54120;53.504;49.426;2024-02-21T12:39:14;9.70;;;4.93;;
67191;SDS011;54120;53.504;49.426;2024-02-21T12:41:40;9.90;;;5.90;;
67191;SDS011;54120;53.504;49.426;2024-02-21T12:44:10;9.00;;;5.80;;
67191;SDS011;54120;53.504;49.426;2024-02-21T12:46:37;10.05;;;5.35;;
67191;SDS011;54120;53.504;49.426;2024-02-21T12:49:05;14.23;;;5.68;;
67191;SDS011;54120;53.504;49.426;2024-02-21T12:51:34;9.77;;;5.70;;
67191;SDS011;54120;53.504;49.426;2024-02-21T12:54:01;11.25;;;5.88;;
67191;SDS011;54120;53.504;49.426;2024-02-21T12:56:28;9.00;;;5.38;;
67191;SDS011;54120;53.504;49.426;2024-02-21T12:58:57;8.23;;;5.18;;
67191;SDS011;54120;53.504;49.426;2024-02-21T13:01:23;10.23;;;5.13;;
67191;SDS011;54120;53.504;49.426;2024-02-21T13:03:50;11.95;;;5.40;;
67191;SDS011;54120;53.504;49.426;2024-02-21T13:06:16;11.93;;;5.30;;
67191;SDS011;54120;53.504;49.426;2024-02-21T13:08:42;9.82;;;5.60;;
67191;SDS011;54120;53.504;49.426;2024-02-21T13:11:10;13.18;;;6.28;;
67191;SDS011;54120;53.504;49.426;2024-02-21T13:13:36;9.52;;;5.50;;
67191;SDS011;54120;53.504;49.426;2024-02-21T13:16:03;8.82;;;5.13;;
67191;SDS011;54120;53.504;49.426;2024-02-21T13:18:30;11.75;;;6.07;;
67191;SDS011;54120;53.504;49.426;2024-02-21T13:20:58;8.02;;;5.30;;
67191;SDS011;54120;53.504;49.426;2024-02-21T13:23:24;9.88;;;5.20;;
67191;SDS011;54120;53.504;49.426;2024-02-21T13:25:50;10.70;;;5.47;;
67191;SDS011;54120;53.504;49.426;2024-02-21T13:28:17;11.88;;;6.03;;
67191;SDS011;54120;53.504;49.426;2024-02-21T13:30:43;11.50;;;6.03;;
67191;SDS011;54120;53.504;49.426;2024-02-21T13:33:09;13.23;;;6.30;;
67191;SDS011;54120;53.504;49.426;2024-02-21T13:35:36;12.88;;;8.32;;
67191;SDS011;54120;53.504;49.426;2024-02-21T13:38:03;13.30;;;11.32;;
67191;SDS011;54120;53.504;49.426;2024-02-21T13:40:29;13.73;;;6.40;;
67191;SDS011;54120;53.504;49.426;2024-02-21T13:42:55;14.88;;;6.35;;
67191;SDS011;54120;53.504;49.426;2024-02-21T13:45:22;12.80;;;7.50;;
67191;SDS011;54120;53.504;49.426;2024-02-21T13:47:48;12.70;;;8.02;;
67191;SDS011;54120;53.504;49.426;2024-02-21T13:50:15;15.30;;;8.07;;
67191;SDS011;54120;53.504;49.426;2024-02-21T13:52:41;13.38;;;8.25;;
67191;SDS011;54120;53.504;49.426;2024-02-21T13:55:07;13.00;;;6.85;;
67191;SDS011;54120;53.504;49.426;2024-02-21T13:57:37;17.05;;;8.15;;
67191;SDS011;54120;53.504;49.426;2024-02-21T14:00:04;17.70;;;11.43;;
67191;SDS011;54120;53.504;49.426;2024-02-21T14:02:31;30.85;;;28.13;;
67191;SDS011;54120;53.504;49.426;2024-02-21T14:04:57;38.50;;;34.78;;
67191;SDS011;54120;53.504;49.426;2024-02-21T14:07:24;14.57;;;8.07;;
67191;SDS011;54120;53.504;49.426;2024-02-21T14:09:50;12.68;;;7.35;;
67191;SDS011;54120;53.504;49.426;2024-02-21T14:12:18;15.70;;;8.38;;
67191;SDS011;54120;53.504;49.426;2024-02-21T14:14:46;16.80;;;7.82;;
67191;SDS011;54120;53.504;49.426;2024-02-21T14:17:12;15.75;;;8.70;;
67191;SDS011;54120;53.504;49.426;2024-02-21T14:19:39;15.90;;;12.52;;
67191;SDS011;54120;53.504;49.426;2024-02-21T14:22:05;36.25;;;32.83;;
67191;SDS011;54120;53.504;49.426;2024-02-21T14:24:31;29.33;;;26.83;;
67191;SDS011;54120;53.504;49.426;2024-02-21T14:26:58;40.40;;;36.97;;